<?xml version="1.0" encoding="UTF-8" standalone="no" ?><gpx xmlns="http://www.topografix.com/GPX/1/1" xmlns:gpxx="http://www.garmin.com/xmlschemas/GpxExtensions/v3" xmlns:wptx1="http://www.garmin.com/xmlschemas/WaypointExtension/v1" xmlns:gpxtpx="http://www.garmin.com/xmlschemas/TrackPointExtension/v1" creator="GuideVTT.com" version="1.1" xmlns:xsi="http://www.w3.org/2001/XMLSchema-instance" xsi:schemaLocation="http://www.topografix.com/GPX/1/1 http://www.topografix.com/GPX/1/1/gpx.xsd http://www.garmin.com/xmlschemas/GpxExtensions/v3 http://www8.garmin.com/xmlschemas/GpxExtensionsv3.xsd http://www.garmin.com/xmlschemas/WaypointExtension/v1 http://www8.garmin.com/xmlschemas/WaypointExtensionv1.xsd http://www.garmin.com/xmlschemas/TrackPointExtension/v1 http://www.garmin.com/xmlschemas/TrackPointExtensionv1.xsd">
<metadata><link href="http://www.garmin.com"><text>Garmin International</text></link><time>2013-06-22T15:13:50Z</time></metadata>
<trk><name>link-etape3-etape4.gpx</name><extensions><gpxx:TrackExtension><gpxx:DisplayColor>Cyan</gpxx:DisplayColor></gpxx:TrackExtension></extensions><trkseg>
<trkpt lat="46.10145475" lon="7.51395064"><ele></ele><time>2014-12-12T14:42:45Z</time></trkpt>
<trkpt lat="46.10126800" lon="7.51394427"><ele></ele><time>2014-12-12T14:42:48Z</time></trkpt>
<trkpt lat="46.10094002" lon="7.51391066"><ele></ele><time>2014-12-12T14:42:51Z</time></trkpt>
<trkpt lat="46.10041070" lon="7.51391301"><ele></ele><time>2014-12-12T14:42:54Z</time></trkpt>
<trkpt lat="46.09998272" lon="7.51414008"><ele></ele><time>2014-12-12T14:42:57Z</time></trkpt>
<trkpt lat="46.09937972" lon="7.51455766"><ele></ele><time>2014-12-12T14:43:0Z</time></trkpt>
<trkpt lat="46.09919951" lon="7.51467945"><ele></ele><time>2014-12-12T14:43:3Z</time></trkpt>
<trkpt lat="46.09907571" lon="7.51472186"><ele></ele><time>2014-12-12T14:43:6Z</time></trkpt>
<trkpt lat="46.09896834" lon="7.51473268"><ele></ele><time>2014-12-12T14:43:9Z</time></trkpt>
<trkpt lat="46.09873666" lon="7.51484508"><ele></ele><time>2014-12-12T14:43:12Z</time></trkpt>
<trkpt lat="46.09838563" lon="7.51512964"><ele></ele><time>2014-12-12T14:43:15Z</time></trkpt>
<trkpt lat="46.09805631" lon="7.51548529"><ele></ele><time>2014-12-12T14:43:18Z</time></trkpt>
<trkpt lat="46.09795832" lon="7.51554220"><ele></ele><time>2014-12-12T14:43:21Z</time></trkpt>
<trkpt lat="46.09731258" lon="7.51567757"><ele></ele><time>2014-12-12T14:43:24Z</time></trkpt>
<trkpt lat="46.09655234" lon="7.51580045"><ele></ele><time>2014-12-12T14:43:27Z</time></trkpt>
<trkpt lat="46.09608086" lon="7.51595375"><ele></ele><time>2014-12-12T14:43:30Z</time></trkpt>
<trkpt lat="46.09561373" lon="7.51586289"><ele></ele><time>2014-12-12T14:43:33Z</time></trkpt>
<trkpt lat="46.09549773" lon="7.51579818"><ele></ele><time>2014-12-12T14:43:36Z</time></trkpt>
<trkpt lat="46.09478099" lon="7.51527121"><ele></ele><time>2014-12-12T14:43:39Z</time></trkpt>
<trkpt lat="46.09446282" lon="7.51461432"><ele></ele><time>2014-12-12T14:43:42Z</time></trkpt>
<trkpt lat="46.09417817" lon="7.51385635"><ele></ele><time>2014-12-12T14:43:45Z</time></trkpt>
<trkpt lat="46.09409468" lon="7.51364739"><ele></ele><time>2014-12-12T14:43:48Z</time></trkpt>
<trkpt lat="46.09394079" lon="7.51353390"><ele></ele><time>2014-12-12T14:43:51Z</time></trkpt>
<trkpt lat="46.09367877" lon="7.51347036"><ele></ele><time>2014-12-12T14:43:54Z</time></trkpt>
<trkpt lat="46.09364474" lon="7.51347053"><ele></ele><time>2014-12-12T14:43:57Z</time></trkpt>
<trkpt lat="46.09343377" lon="7.51338436"><ele></ele><time>2014-12-12T14:44:0Z</time></trkpt>
<trkpt lat="46.09324501" lon="7.51334723"><ele></ele><time>2014-12-12T14:44:3Z</time></trkpt>
<trkpt lat="46.09304074" lon="7.51344128"><ele></ele><time>2014-12-12T14:44:6Z</time></trkpt>
<trkpt lat="46.09290311" lon="7.51354228"><ele></ele><time>2014-12-12T14:44:9Z</time></trkpt>
<trkpt lat="46.09279733" lon="7.51357941"><ele></ele><time>2014-12-12T14:44:12Z</time></trkpt>
<trkpt lat="46.09257638" lon="7.51359726"><ele></ele><time>2014-12-12T14:44:15Z</time></trkpt>
<trkpt lat="46.09223164" lon="7.51343189"><ele></ele><time>2014-12-12T14:44:18Z</time></trkpt>
<trkpt lat="46.09154491" lon="7.51312888"><ele></ele><time>2014-12-12T14:44:21Z</time></trkpt>
<trkpt lat="46.09085189" lon="7.51293777"><ele></ele><time>2014-12-12T14:44:24Z</time></trkpt>
<trkpt lat="46.09048862" lon="7.51296342"><ele></ele><time>2014-12-12T14:44:27Z</time></trkpt>
<trkpt lat="46.09009886" lon="7.51295286"><ele></ele><time>2014-12-12T14:44:30Z</time></trkpt>
<trkpt lat="46.08963149" lon="7.51286594"><ele></ele><time>2014-12-12T14:44:33Z</time></trkpt>
<trkpt lat="46.08915950" lon="7.51275128"><ele></ele><time>2014-12-12T14:44:36Z</time></trkpt>
<trkpt lat="46.08869531" lon="7.51261750"><ele></ele><time>2014-12-12T14:44:39Z</time></trkpt>
<trkpt lat="46.08830119" lon="7.51251742"><ele></ele><time>2014-12-12T14:44:42Z</time></trkpt>
<trkpt lat="46.08776961" lon="7.51235330"><ele></ele><time>2014-12-12T14:44:45Z</time></trkpt>
<trkpt lat="46.08750919" lon="7.51232866"><ele></ele><time>2014-12-12T14:44:48Z</time></trkpt>
<trkpt lat="46.08712630" lon="7.51227519"><ele></ele><time>2014-12-12T14:44:51Z</time></trkpt>
<trkpt lat="46.08623715" lon="7.51179960"><ele></ele><time>2014-12-12T14:44:54Z</time></trkpt>
<trkpt lat="46.08607396" lon="7.51167823"><ele></ele><time>2014-12-12T14:44:57Z</time></trkpt>
<trkpt lat="46.08585519" lon="7.51151009"><ele></ele><time>2014-12-12T14:45:0Z</time></trkpt>
<trkpt lat="46.08514960" lon="7.51095755"><ele></ele><time>2014-12-12T14:45:3Z</time></trkpt>
<trkpt lat="46.08499202" lon="7.51077843"><ele></ele><time>2014-12-12T14:45:6Z</time></trkpt>
<trkpt lat="46.08447804" lon="7.51050694"><ele></ele><time>2014-12-12T14:45:9Z</time></trkpt>
<trkpt lat="46.08415039" lon="7.51024366"><ele></ele><time>2014-12-12T14:45:12Z</time></trkpt>
<trkpt lat="46.08404520" lon="7.51013956"><ele></ele><time>2014-12-12T14:45:15Z</time></trkpt>
<trkpt lat="46.08387538" lon="7.51001953"><ele></ele><time>2014-12-12T14:45:18Z</time></trkpt>
<trkpt lat="46.08376566" lon="7.50994761"><ele></ele><time>2014-12-12T14:45:21Z</time></trkpt>
<trkpt lat="46.08354773" lon="7.50987503"><ele></ele><time>2014-12-12T14:45:24Z</time></trkpt>
<trkpt lat="46.08316971" lon="7.50970345"><ele></ele><time>2014-12-12T14:45:27Z</time></trkpt>
<trkpt lat="46.08265070" lon="7.50960002"><ele></ele><time>2014-12-12T14:45:30Z</time></trkpt>
<trkpt lat="46.08235298" lon="7.50972432"><ele></ele><time>2014-12-12T14:45:33Z</time></trkpt>
<trkpt lat="46.08239723" lon="7.50963505"><ele></ele><time>2014-12-12T14:45:36Z</time></trkpt>
<trkpt lat="46.08244811" lon="7.50953489"><ele></ele><time>2014-12-12T14:45:39Z</time></trkpt>
<trkpt lat="46.08278406" lon="7.50936675"><ele></ele><time>2014-12-12T14:45:42Z</time></trkpt>
<trkpt lat="46.08326166" lon="7.50935912"><ele></ele><time>2014-12-12T14:45:45Z</time></trkpt>
<trkpt lat="46.08359593" lon="7.50908872"><ele></ele><time>2014-12-12T14:45:48Z</time></trkpt>
<trkpt lat="46.08404394" lon="7.50882586"><ele></ele><time>2014-12-12T14:45:51Z</time></trkpt>
</trkseg></trk></gpx>